Time;durP1;ratioP1;P1;durP2;ratioP2;P2;SDS_P1;SDS_P2;PMS_P1;PMS_P2;Temp;Humidity;BMP_temperature;BMP_pressure;BME280_temperature;BME280_humidity;BME280_pressure;Samples;Min_cycle;Max_cycle;Signal;HPM_P1;HPM_P2
2020/12/19 00:00:07;;;;;;;4.37;2.20;;;19.90;49.30;;;;;;5052342;28;20488;-68
2020/12/19 00:02:33;;;;;;;1.50;1.50;;;19.90;49.30;;;;;;5041233;28;21053;-67
2020/12/19 00:05:00;;;;;;;2.03;1.93;;;19.90;49.40;;;;;;5031684;28;20502;-67
2020/12/19 00:07:26;;;;;;;2.30;2.17;;;19.90;49.30;;;;;;5041316;28;20494;-67
2020/12/19 00:09:53;;;;;;;2.57;2.37;;;19.90;50.00;;;;;;5030195;28;20489;-67
2020/12/19 00:12:20;;;;;;;1.33;1.33;;;19.90;49.30;;;;;;5046862;28;20492;-66
2020/12/19 00:14:47;;;;;;;4.53;1.97;;;19.90;49.20;;;;;;5031559;28;20486;-68
2020/12/19 00:17:14;;;;;;;1.93;1.83;;;19.90;49.10;;;;;;5026344;28;20485;-66
2020/12/19 00:19:40;;;;;;;2.30;1.60;;;19.90;49.00;;;;;;5052069;28;20485;-67
2020/12/19 00:22:06;;;;;;;2.83;1.97;;;19.90;48.90;;;;;;5043881;28;20496;-67
2020/12/19 00:24:32;;;;;;;1.80;1.70;;;20.00;49.00;;;;;;5040360;28;20489;-67
2020/12/19 00:26:58;;;;;;;2.90;2.17;;;20.10;48.90;;;;;;5029942;28;20498;-66
2020/12/19 00:29:25;;;;;;;1.87;1.87;;;20.10;48.80;;;;;;5039670;28;20489;-66
2020/12/19 00:31:52;;;;;;;1.60;1.60;;;20.10;48.70;;;;;;5047797;28;21195;-66
2020/12/19 00:34:18;;;;;;;2.13;2.03;;;20.20;48.70;;;;;;5032708;28;20509;-66
2020/12/19 00:36:44;;;;;;;2.33;2.23;;;20.20;48.70;;;;;;5050418;28;20485;-65
2020/12/19 00:39:10;;;;;;;2.20;2.00;;;20.20;48.50;;;;;;5027661;28;20508;-66
2020/12/19 00:41:36;;;;;;;2.60;2.40;;;20.20;48.50;;;;;;5031145;28;21183;-67
2020/12/19 00:44:03;;;;;;;2.00;1.90;;;20.10;48.50;;;;;;5026250;28;20478;-67
2020/12/19 00:46:29;;;;;;;2.20;2.10;;;20.10;48.50;;;;;;5027799;28;20495;-66
2020/12/19 00:48:56;;;;;;;1.83;1.73;;;20.10;48.60;;;;;;5058080;28;20527;-66
2020/12/19 00:51:23;;;;;;;2.90;1.97;;;20.10;48.60;;;;;;5005628;28;20992;-67
2020/12/19 00:53:49;;;;;;;2.20;2.10;;;20.00;48.60;;;;;;5047097;28;20478;-66
2020/12/19 00:56:17;;;;;;;1.83;1.73;;;20.00;48.70;;;;;;5036514;28;20523;-67
2020/12/19 00:58:43;;;;;;;2.43;2.30;;;20.00;48.70;;;;;;5038096;28;20517;-67
2020/12/19 01:01:09;;;;;;;2.50;2.30;;;20.00;48.80;;;;;;5030864;28;20544;-66
2020/12/19 01:03:36;;;;;;;5.17;1.80;;;20.00;48.70;;;;;;5011214;28;20503;-67
2020/12/19 01:06:03;;;;;;;2.00;1.90;;;20.00;48.70;;;;;;5034931;28;20485;-68
2020/12/19 01:08:29;;;;;;;1.73;1.53;;;20.00;48.80;;;;;;5046454;28;20482;-69
2020/12/19 01:10:55;;;;;;;1.83;1.73;;;20.00;48.70;;;;;;5033476;28;20521;-68
2020/12/19 01:13:21;;;;;;;1.80;1.70;;;20.00;48.50;;;;;;5045673;28;20474;-66
2020/12/19 01:15:47;;;;;;;2.80;2.67;;;20.00;48.50;;;;;;5042885;28;20950;-67
2020/12/19 01:18:13;;;;;;;1.90;1.80;;;20.00;48.40;;;;;;5034631;28;20520;-67
2020/12/19 01:20:40;;;;;;;1.83;1.60;;;20.00;48.50;;;;;;5038661;28;20567;-68
2020/12/19 01:23:07;;;;;;;1.63;1.53;;;20.10;48.50;;;;;;5032987;28;20482;-67
2020/12/19 01:25:33;;;;;;;2.47;2.27;;;20.10;48.40;;;;;;5021179;28;21250;-67
2020/12/19 01:27:59;;;;;;;1.83;1.73;;;20.10;48.40;;;;;;4987513;28;20499;-67
2020/12/19 01:30:25;;;;;;;1.83;1.73;;;20.10;48.40;;;;;;5033940;28;22225;-68
2020/12/19 01:32:51;;;;;;;1.90;1.80;;;20.10;48.40;;;;;;5048117;28;20485;-65
2020/12/19 01:35:18;;;;;;;2.23;2.10;;;20.00;48.40;;;;;;5042893;28;20486;-67
2020/12/19 01:37:44;;;;;;;1.57;1.47;;;20.00;48.30;;;;;;4999973;28;22096;-67
2020/12/19 01:40:11;;;;;;;2.00;1.90;;;20.00;48.20;;;;;;5003046;28;20490;-67
2020/12/19 01:42:37;;;;;;;1.90;1.80;;;20.00;48.30;;;;;;5035618;28;20490;-66
2020/12/19 01:45:03;;;;;;;2.63;1.60;;;20.10;48.30;;;;;;5034253;28;20487;-66
2020/12/19 01:47:29;;;;;;;2.00;1.90;;;20.10;48.20;;;;;;5030893;28;20494;-67
2020/12/19 01:49:55;;;;;;;2.03;1.70;;;20.10;47.90;;;;;;5066346;28;20477;-68
2020/12/19 01:52:22;;;;;;;2.50;2.40;;;20.10;47.90;;;;;;5058840;28;21068;-67
2020/12/19 01:54:48;;;;;;;1.90;1.80;;;20.10;48.00;;;;;;5058565;28;20473;-67
2020/12/19 01:57:15;;;;;;;1.83;1.70;;;20.10;48.90;;;;;;5042719;28;21117;-66
2020/12/19 01:59:41;;;;;;;1.97;1.87;;;20.10;48.10;;;;;;5031865;28;20477;-67
2020/12/19 02:02:08;;;;;;;1.73;1.63;;;20.10;48.20;;;;;;5025931;28;20486;-67
2020/12/19 02:04:34;;;;;;;1.70;1.70;;;20.00;48.10;;;;;;5049569;28;20533;-67
2020/12/19 02:07:01;;;;;;;2.00;1.80;;;20.00;48.10;;;;;;5025117;28;20468;-66
2020/12/19 02:09:28;;;;;;;2.00;1.87;;;20.00;48.10;;;;;;5005029;28;20503;-66
2020/12/19 02:11:55;;;;;;;1.83;1.80;;;20.00;48.20;;;;;;5026125;28;20481;-66
2020/12/19 02:14:22;;;;;;;1.57;1.47;;;20.00;48.10;;;;;;5028626;28;20551;-66
2020/12/19 02:16:55;;;;;;;1.90;1.90;;;20.00;48.00;;;;;;5048516;28;20486;-68
2020/12/19 02:19:21;;;;;;;2.50;1.93;;;20.00;48.00;;;;;;5036214;28;20989;-66
2020/12/19 02:21:47;;;;;;;2.03;1.93;;;20.00;47.90;;;;;;5028690;28;20497;-67
2020/12/19 02:24:14;;;;;;;1.70;1.60;;;20.10;47.90;;;;;;5024388;28;20497;-67
2020/12/19 02:26:44;;;;;;;1.83;1.73;;;20.10;47.80;;;;;;5047941;28;20474;-66
2020/12/19 02:29:10;;;;;;;2.40;2.30;;;20.10;47.80;;;;;;5035693;28;20525;-66
2020/12/19 02:31:36;;;;;;;3.23;1.90;;;20.10;47.80;;;;;;5026848;28;20494;-66
2020/12/19 02:34:03;;;;;;;2.10;2.00;;;20.10;47.80;;;;;;5062679;28;20507;-66
2020/12/19 02:36:29;;;;;;;2.07;1.53;;;20.00;47.80;;;;;;5018714;28;20503;-67
2020/12/19 02:38:55;;;;;;;1.87;1.80;;;20.00;47.80;;;;;;5032999;28;20493;-66
2020/12/19 02:41:22;;;;;;;1.77;1.67;;;20.00;47.80;;;;;;5048591;28;20475;-66
2020/12/19 02:43:52;;;;;;;2.40;2.30;;;20.00;47.70;;;;;;5029042;28;20872;-67
2020/12/19 02:46:18;;;;;;;2.33;2.23;;;20.00;47.70;;;;;;5042391;28;20482;-67
2020/12/19 02:48:44;;;;;;;1.90;1.80;;;20.00;47.70;;;;;;5030027;28;21228;-66
2020/12/19 02:51:10;;;;;;;1.60;1.60;;;20.00;47.70;;;;;;5047495;28;20927;-69
2020/12/19 02:53:36;;;;;;;2.90;1.90;;;20.00;47.60;;;;;;5028065;28;20912;-68
2020/12/19 02:56:03;;;;;;;2.10;1.90;;;20.10;47.70;;;;;;5032976;28;20531;-66
2020/12/19 02:58:30;;;;;;;1.90;1.80;;;20.10;47.60;;;;;;5036663;28;20517;-67
2020/12/19 03:00:56;;;;;;;2.10;2.00;;;20.00;47.50;;;;;;5025211;28;20529;-68
2020/12/19 03:03:22;;;;;;;1.70;1.60;;;20.00;47.50;;;;;;5045322;28;20500;-67
2020/12/19 03:05:48;;;;;;;2.20;2.00;;;20.00;47.60;;;;;;5021705;28;20486;-67
2020/12/19 03:08:14;;;;;;;2.30;2.10;;;20.00;47.60;;;;;;5055812;28;20523;-67
2020/12/19 03:10:40;;;;;;;1.90;1.80;;;20.00;47.70;;;;;;5048678;28;20484;-66
2020/12/19 03:13:06;;;;;;;3.00;2.70;;;20.00;47.70;;;;;;5065695;28;21164;-67
2020/12/19 03:15:33;;;;;;;2.50;2.40;;;20.00;47.70;;;;;;5052985;28;21196;-67
2020/12/19 03:18:00;;;;;;;2.03;1.83;;;20.00;47.70;;;;;;5051266;28;20474;-66
2020/12/19 03:20:26;;;;;;;2.00;1.90;;;20.00;48.50;;;;;;5041058;28;21141;-68
2020/12/19 03:22:52;;;;;;;2.40;2.20;;;20.00;47.70;;;;;;5056347;28;20511;-67
2020/12/19 03:25:18;;;;;;;2.13;2.03;;;20.00;47.60;;;;;;5052443;28;20484;-66
2020/12/19 03:27:44;;;;;;;2.37;2.17;;;20.00;47.60;;;;;;5047970;28;20481;-67
2020/12/19 03:30:10;;;;;;;2.03;1.93;;;20.00;47.60;;;;;;5044250;28;20473;-67
2020/12/19 03:32:37;;;;;;;2.40;2.30;;;20.00;47.60;;;;;;5054618;28;20526;-67
2020/12/19 03:35:04;;;;;;;1.73;1.67;;;20.00;47.70;;;;;;5042113;28;20485;-67
2020/12/19 03:37:33;;;;;;;2.33;2.20;;;20.00;47.50;;;;;;5075140;28;20488;-67
2020/12/19 03:39:59;;;;;;;2.10;2.00;;;20.00;47.40;;;;;;5033665;28;20492;-66
2020/12/19 03:42:25;;;;;;;2.43;2.33;;;20.00;47.40;;;;;;5034337;28;21053;-65
2020/12/19 03:44:51;;;;;;;2.53;2.43;;;20.00;47.30;;;;;;5026166;28;20898;-68
2020/12/19 03:47:17;;;;;;;1.90;1.77;;;20.00;47.70;;;;;;5048289;28;20504;-67
2020/12/19 03:49:44;;;;;;;2.67;2.17;;;20.00;47.30;;;;;;5036348;28;20490;-67
2020/12/19 03:52:11;;;;;;;2.37;2.20;;;20.10;47.40;;;;;;5047236;28;20493;-66
2020/12/19 03:54:37;;;;;;;2.80;2.60;;;20.00;47.30;;;;;;5049956;28;20490;-67
2020/12/19 03:57:03;;;;;;;2.30;2.10;;;20.00;47.30;;;;;;5048403;28;20486;-67
2020/12/19 03:59:29;;;;;;;2.50;2.30;;;20.00;47.40;;;;;;5047753;28;20481;-67
2020/12/19 04:01:55;;;;;;;2.00;1.90;;;20.00;47.40;;;;;;5046635;28;20505;-68
2020/12/19 04:04:21;;;;;;;3.10;2.40;;;20.00;47.50;;;;;;5040641;28;20491;-67
2020/12/19 04:06:48;;;;;;;1.97;1.87;;;20.00;47.40;;;;;;5039857;28;20527;-67
2020/12/19 04:09:14;;;;;;;2.70;2.60;;;20.00;47.50;;;;;;5026487;28;20478;-68
2020/12/19 04:11:41;;;;;;;2.47;2.37;;;19.90;47.40;;;;;;5042094;28;20497;-68
2020/12/19 04:14:07;;;;;;;2.53;2.43;;;19.90;47.50;;;;;;5030936;28;20490;-67
2020/12/19 04:16:33;;;;;;;2.40;2.30;;;19.90;47.40;;;;;;5026395;28;20501;-68
2020/12/19 04:18:59;;;;;;;1.90;1.80;;;20.00;47.40;;;;;;5038139;28;20543;-68
2020/12/19 04:21:25;;;;;;;3.40;2.50;;;19.90;47.20;;;;;;5048472;28;20486;-69
2020/12/19 04:23:52;;;;;;;2.10;2.00;;;20.00;47.30;;;;;;5043021;28;20490;-69
2020/12/19 04:26:18;;;;;;;1.60;1.60;;;20.00;47.30;;;;;;5053236;28;20478;-68
2020/12/19 04:28:44;;;;;;;2.10;2.00;;;20.00;47.30;;;;;;5047905;28;20631;-67
2020/12/19 04:31:11;;;;;;;1.90;1.80;;;20.00;47.20;;;;;;5053590;28;21171;-68
2020/12/19 04:33:37;;;;;;;2.40;2.30;;;20.00;47.20;;;;;;5051208;28;20471;-67
2020/12/19 04:36:03;;;;;;;2.03;1.93;;;20.00;47.20;;;;;;5051601;28;20478;-68
2020/12/19 04:38:29;;;;;;;2.10;2.00;;;20.00;47.30;;;;;;5051438;28;20491;-66
2020/12/19 04:40:57;;;;;;;2.90;2.80;;;20.00;47.40;;;;;;5050533;28;20470;-67
2020/12/19 04:43:23;;;;;;;3.63;3.37;;;20.00;47.50;;;;;;5049629;28;21561;-67
2020/12/19 04:45:50;;;;;;;1.93;1.83;;;19.90;47.40;;;;;;5042523;28;20885;-67
2020/12/19 04:48:17;;;;;;;2.30;2.20;;;19.90;47.30;;;;;;5048740;28;20493;-68
2020/12/19 04:50:43;;;;;;;1.87;1.77;;;19.90;47.20;;;;;;5017956;28;20521;-67
2020/12/19 04:53:16;;;;;;;6.13;2.80;;;19.90;47.30;;;;;;5047995;28;20860;-67
2020/12/19 04:55:42;;;;;;;2.23;2.13;;;20.00;47.40;;;;;;5032277;28;20556;-66
2020/12/19 04:58:10;;;;;;;2.10;2.00;;;20.00;47.30;;;;;;5019266;28;20494;-67
2020/12/19 05:00:37;;;;;;;2.13;2.00;;;20.00;47.30;;;;;;5049888;28;20562;-66
2020/12/19 05:03:03;;;;;;;2.20;2.10;;;20.00;47.20;;;;;;5037705;28;20479;-67
2020/12/19 05:05:29;;;;;;;2.60;2.50;;;20.00;47.30;;;;;;5028341;28;20485;-67
2020/12/19 05:07:55;;;;;;;2.10;2.00;;;20.00;47.30;;;;;;5038111;28;20493;-68
2020/12/19 05:10:21;;;;;;;1.73;1.70;;;20.00;47.30;;;;;;5037675;28;20555;-67
2020/12/19 05:12:52;;;;;;;2.60;2.40;;;20.00;47.40;;;;;;5011864;28;20491;-67
2020/12/19 05:15:19;;;;;;;2.37;2.27;;;19.90;47.50;;;;;;5034263;28;20490;-67
2020/12/19 05:17:51;;;;;;;2.20;2.10;;;19.90;47.50;;;;;;5013306;28;20521;-67
2020/12/19 05:20:17;;;;;;;2.80;2.53;;;19.80;47.50;;;;;;5021315;28;20971;-67
2020/12/19 05:22:46;;;;;;;2.57;2.47;;;19.90;47.70;;;;;;5037814;28;20485;-67
2020/12/19 05:25:13;;;;;;;2.30;2.10;;;19.80;47.70;;;;;;5045345;28;20852;-67
2020/12/19 05:27:39;;;;;;;2.83;2.63;;;19.80;47.70;;;;;;5029015;28;20502;-68
2020/12/19 05:30:06;;;;;;;2.83;2.73;;;19.80;47.70;;;;;;5034761;28;20480;-67
2020/12/19 05:32:33;;;;;;;3.23;1.97;;;19.80;47.70;;;;;;5040119;28;20486;-67
2020/12/19 05:34:59;;;;;;;2.43;2.33;;;19.80;47.80;;;;;;5042504;28;20477;-67
2020/12/19 05:37:26;;;;;;;2.80;2.60;;;19.70;47.70;;;;;;5029083;28;20484;-68
2020/12/19 05:39:52;;;;;;;1.90;1.80;;;19.70;47.80;;;;;;5034987;28;20531;-67
2020/12/19 05:42:22;;;;;;;2.50;2.40;;;19.70;47.90;;;;;;5033562;28;20482;-67
2020/12/19 05:44:48;;;;;;;3.60;2.37;;;19.70;47.80;;;;;;5026713;28;20518;-67
2020/12/19 05:47:14;;;;;;;2.33;2.23;;;19.70;47.80;;;;;;5042631;28;20497;-68
2020/12/19 05:49:42;;;;;;;2.50;2.40;;;19.70;47.70;;;;;;5075883;28;20496;-68
2020/12/19 05:52:08;;;;;;;2.17;1.97;;;19.70;47.70;;;;;;5024982;28;20494;-67
2020/12/19 05:54:34;;;;;;;2.50;2.40;;;19.70;47.70;;;;;;5012188;28;20496;-68
2020/12/19 05:57:00;;;;;;;2.70;2.57;;;19.80;47.80;;;;;;5035342;28;21042;-69
2020/12/19 05:59:27;;;;;;;2.40;2.30;;;19.80;47.70;;;;;;5045290;28;21095;-67
2020/12/19 06:01:53;;;;;;;2.27;2.07;;;19.70;47.70;;;;;;5046497;28;20521;-66
2020/12/19 06:04:20;;;;;;;2.23;2.13;;;19.70;47.90;;;;;;5041070;28;20497;-67
2020/12/19 06:06:47;;;;;;;2.70;2.53;;;19.60;48.00;;;;;;5036986;28;20537;-67
2020/12/19 06:09:14;;;;;;;2.40;2.30;;;19.60;47.80;;;;;;5046952;28;21200;-67
2020/12/19 06:11:43;;;;;;;3.50;3.10;;;19.70;47.60;;;;;;5028546;28;20524;-68
2020/12/19 06:14:09;;;;;;;1.87;1.77;;;19.70;47.60;;;;;;5022286;28;20481;-68
2020/12/19 06:16:38;;;;;;;2.50;2.40;;;19.70;47.30;;;;;;5020208;28;20898;-66
2020/12/19 06:19:12;;;;;;;2.93;2.70;;;19.80;47.40;;;;;;5003810;28;20545;-68
2020/12/19 06:21:38;;;;;;;3.17;2.97;;;19.80;47.10;;;;;;5042737;28;20867;-67
2020/12/19 06:24:05;;;;;;;3.20;2.97;;;19.90;47.00;;;;;;5041108;28;20620;-67
2020/12/19 06:26:36;;;;;;;2.67;2.57;;;19.90;46.50;;;;;;5033848;28;20485;-67
2020/12/19 06:29:02;;;;;;;3.40;3.30;;;19.90;46.70;;;;;;5041875;28;20998;-68
2020/12/19 06:31:28;;;;;;;2.77;2.57;;;20.00;46.50;;;;;;5036993;28;20545;-67
2020/12/19 06:33:55;;;;;;;3.77;2.80;;;20.10;46.50;;;;;;5024758;28;20552;-67
2020/12/19 06:36:23;;;;;;;2.70;2.60;;;20.10;46.50;;;;;;5032119;28;20536;-67
2020/12/19 06:38:50;;;;;;;3.13;2.90;;;19.90;46.60;;;;;;5036433;28;21417;-66
2020/12/19 06:41:45;;;;;;;9.33;3.93;;;19.90;46.50;;;;;;5038177;28;20482;-68
2020/12/19 06:44:12;;;;;;;2.90;2.70;;;19.80;46.70;;;;;;5028692;28;20525;-67
2020/12/19 06:46:39;;;;;;;2.33;2.23;;;19.80;46.90;;;;;;5002259;28;20477;-67
2020/12/19 06:49:27;;;;;;;2.57;2.47;;;19.90;46.80;;;;;;5042366;28;20470;-68
2020/12/19 06:52:00;;;;;;;3.23;2.90;;;19.80;47.10;;;;;;5031911;28;20482;-66
2020/12/19 06:54:27;;;;;;;3.10;2.80;;;19.80;47.00;;;;;;5030030;28;20486;-68
2020/12/19 06:56:54;;;;;;;3.30;3.10;;;19.80;47.10;;;;;;5030723;28;20476;-67
2020/12/19 06:59:23;;;;;;;2.40;2.30;;;19.80;47.10;;;;;;5045148;28;20476;-67
2020/12/19 07:01:49;;;;;;;2.03;1.93;;;19.80;47.10;;;;;;5052044;28;20498;-67
2020/12/19 07:04:33;;;;;;;2.90;2.70;;;19.80;47.10;;;;;;5063450;28;20620;-67
2020/12/19 07:07:03;;;;;;;2.50;2.20;;;19.80;47.10;;;;;;5062057;28;20504;-67
2020/12/19 07:09:29;;;;;;;3.00;2.77;;;19.80;47.10;;;;;;5046710;28;20534;-67
2020/12/19 07:11:56;;;;;;;2.30;2.20;;;19.80;47.20;;;;;;5054110;28;20597;-66
2020/12/19 07:14:22;;;;;;;2.70;2.60;;;19.80;47.10;;;;;;5068995;28;20484;-67
2020/12/19 07:16:49;;;;;;;3.27;2.80;;;19.80;47.10;;;;;;5065692;28;20487;-68
2020/12/19 07:19:19;;;;;;;3.03;2.70;;;19.80;47.10;;;;;;5063571;28;21036;-67
2020/12/19 07:21:46;;;;;;;2.93;2.77;;;19.90;47.10;;;;;;5076157;28;20469;-67
2020/12/19 07:24:12;;;;;;;1.90;1.80;;;19.90;46.90;;;;;;5074986;28;20558;-68
2020/12/19 07:26:38;;;;;;;2.50;2.40;;;19.90;47.10;;;;;;5047525;28;20477;-67
2020/12/19 07:29:13;;;;;;;2.07;1.97;;;19.90;46.90;;;;;;5051131;28;20520;-67
2020/12/19 07:31:43;;;;;;;2.53;2.43;;;19.90;46.50;;;;;;5067981;28;20483;-67
2020/12/19 07:34:09;;;;;;;2.43;2.23;;;20.00;46.30;;;;;;5065030;28;21001;-68
2020/12/19 07:36:36;;;;;;;1.87;1.77;;;20.10;46.30;;;;;;5072260;27;21944;-68
2020/12/19 07:39:03;;;;;;;2.57;2.40;;;20.10;46.00;;;;;;5036631;28;20481;-68
2020/12/19 07:41:29;;;;;;;2.40;2.30;;;20.10;46.00;;;;;;5037571;28;20500;-67
2020/12/19 07:43:55;;;;;;;3.00;2.37;;;20.20;46.10;;;;;;5069420;28;20481;-67
2020/12/19 07:46:22;;;;;;;5.20;2.83;;;20.20;46.10;;;;;;5057374;28;20488;-67
2020/12/19 07:48:53;;;;;;;3.13;2.93;;;20.20;46.10;;;;;;5074974;28;20507;-67
2020/12/19 07:51:21;;;;;;;2.33;2.13;;;20.20;46.20;;;;;;5051627;28;21539;-67
2020/12/19 07:53:48;;;;;;;1.77;1.67;;;20.20;46.10;;;;;;5045525;28;20584;-67
2020/12/19 07:56:14;;;;;;;2.63;2.43;;;20.20;46.00;;;;;;5012835;28;20469;-67
2020/12/19 07:58:40;;;;;;;2.40;2.30;;;20.20;45.70;;;;;;5073232;28;20871;-68
2020/12/19 08:01:06;;;;;;;2.67;2.47;;;20.20;45.80;;;;;;5064830;28;20484;-66
2020/12/19 08:03:33;;;;;;;2.90;2.70;;;20.20;45.70;;;;;;5072174;28;20484;-67
2020/12/19 08:05:59;;;;;;;2.20;2.10;;;20.30;45.70;;;;;;5061115;28;21728;-68
2020/12/19 08:08:25;;;;;;;2.40;2.20;;;20.20;46.00;;;;;;5063730;28;20488;-68
2020/12/19 08:11:00;;;;;;;4.90;2.20;;;20.20;45.90;;;;;;5049103;28;20480;-68
2020/12/19 08:13:26;;;;;;;8.90;2.23;;;20.20;45.80;;;;;;5060172;27;20486;-69
2020/12/19 08:15:54;;;;;;;2.47;2.27;;;20.20;46.10;;;;;;5063909;28;20472;-68
2020/12/19 08:18:20;;;;;;;1.87;1.87;;;20.20;46.00;;;;;;5084680;27;20480;-68
2020/12/19 08:20:48;;;;;;;2.20;2.10;;;20.30;46.10;;;;;;5055340;28;20489;-68
2020/12/19 08:23:14;;;;;;;2.30;2.20;;;20.30;45.80;;;;;;5035370;28;20589;-69
2020/12/19 08:25:40;;;;;;;3.27;2.20;;;20.30;46.10;;;;;;5051008;28;20485;-68
2020/12/19 08:28:06;;;;;;;2.93;2.57;;;20.30;45.90;;;;;;5049447;28;20486;-67
2020/12/19 08:30:33;;;;;;;2.37;2.27;;;20.30;45.80;;;;;;5053914;28;20509;-67
2020/12/19 08:33:00;;;;;;;1.90;1.80;;;20.40;45.90;;;;;;5047887;28;20490;-68
2020/12/19 08:35:27;;;;;;;2.03;1.93;;;20.40;45.80;;;;;;5046940;28;20485;-69
2020/12/19 08:38:05;;;;;;;1.93;1.83;;;20.40;45.90;;;;;;5037201;28;20482;-67
2020/12/19 08:40:33;;;;;;;1.90;1.80;;;20.40;46.40;;;;;;5040702;28;20580;-67
2020/12/19 08:42:59;;;;;;;2.03;1.93;;;20.40;46.40;;;;;;5046536;28;21218;-68
2020/12/19 08:45:27;;;;;;;2.10;2.07;;;20.40;46.40;;;;;;5036807;28;21156;-68
2020/12/19 08:47:54;;;;;;;1.93;1.83;;;20.40;46.40;;;;;;5009504;28;20493;-68
2020/12/19 08:50:25;;;;;;;1.60;1.60;;;20.40;46.50;;;;;;4997840;28;22177;-67
2020/12/19 08:53:09;;;;;;;2.20;2.00;;;20.30;46.90;;;;;;5005559;28;20489;-67
2020/12/19 08:55:35;;;;;;;2.00;1.90;;;20.30;46.90;;;;;;5036121;28;21473;-68
2020/12/19 08:58:01;;;;;;;1.80;1.80;;;20.30;46.90;;;;;;5019925;28;21057;-68
2020/12/19 09:00:35;;;;;;;2.23;2.13;;;20.30;46.90;;;;;;5056114;28;20485;-69
2020/12/19 09:03:06;;;;;;;1.73;1.63;;;20.30;46.90;;;;;;5024472;28;21043;-68
2020/12/19 09:05:33;;;;;;;5.90;1.67;;;20.30;46.90;;;;;;5018368;28;21154;-68
2020/12/19 09:07:59;;;;;;;2.13;1.63;;;20.30;46.90;;;;;;5023514;28;20494;-67
2020/12/19 09:10:27;;;;;;;1.90;1.80;;;20.30;46.90;;;;;;4989750;28;20509;-68
2020/12/19 09:13:13;;;;;;;1.87;1.77;;;20.30;46.90;;;;;;5027200;28;20485;-66
2020/12/19 09:15:39;;;;;;;2.07;1.97;;;20.30;46.90;;;;;;5059039;28;20846;-67
2020/12/19 09:18:18;;;;;;;1.60;1.60;;;20.30;46.90;;;;;;5025305;28;20487;-66
2020/12/19 09:20:45;;;;;;;1.50;1.40;;;20.40;46.90;;;;;;5048976;28;20474;-67
2020/12/19 09:23:11;;;;;;;1.47;1.40;;;20.40;46.80;;;;;;5017392;28;20483;-69
2020/12/19 09:25:38;;;;;;;1.67;1.67;;;20.40;46.80;;;;;;5026303;28;20485;-67
2020/12/19 09:28:04;;;;;;;1.67;1.57;;;20.40;46.80;;;;;;5037992;28;20493;-68
2020/12/19 09:30:31;;;;;;;2.23;2.13;;;20.40;46.70;;;;;;5026293;28;20507;-68
2020/12/19 09:32:58;;;;;;;2.13;2.03;;;20.40;47.60;;;;;;5032616;28;21068;-68
2020/12/19 09:35:25;;;;;;;2.47;2.27;;;20.40;46.80;;;;;;5016631;28;20489;-68
2020/12/19 09:37:51;;;;;;;1.97;1.87;;;20.50;46.80;;;;;;5035101;28;20576;-67
2020/12/19 09:40:17;;;;;;;1.23;1.23;;;20.40;46.80;;;;;;5020930;28;20488;-67
2020/12/19 09:42:44;;;;;;;1.90;1.80;;;20.40;46.90;;;;;;5025525;28;20541;-68
2020/12/19 09:45:10;;;;;;;2.50;1.60;;;20.40;46.90;;;;;;5045238;28;20486;-69
2020/12/19 09:47:36;;;;;;;1.90;1.40;;;20.40;47.00;;;;;;5023791;28;20483;-67
2020/12/19 09:50:03;;;;;;;1.70;1.60;;;20.40;46.90;;;;;;5036547;28;20483;-68
2020/12/19 09:52:29;;;;;;;2.00;1.90;;;20.40;46.90;;;;;;5045837;28;22131;-68
2020/12/19 09:54:55;;;;;;;2.20;1.90;;;20.40;47.00;;;;;;5045361;28;20929;-69
2020/12/19 09:57:21;;;;;;;2.30;2.20;;;20.40;47.00;;;;;;5046091;28;20520;-68
2020/12/19 09:59:48;;;;;;;2.17;2.07;;;20.30;46.90;;;;;;5047887;28;20489;-69
2020/12/19 10:02:14;;;;;;;1.93;1.83;;;20.40;46.90;;;;;;5014237;28;20472;-68
2020/12/19 10:04:41;;;;;;;1.83;1.73;;;20.40;48.30;;;;;;5045476;28;20474;-68
2020/12/19 10:07:07;;;;;;;1.90;1.80;;;20.40;47.70;;;;;;5036736;28;20477;-67
2020/12/19 10:09:33;;;;;;;2.33;2.13;;;20.40;48.00;;;;;;5043649;28;20479;-66
2020/12/19 10:11:59;;;;;;;1.53;1.53;;;20.40;47.70;;;;;;5049851;28;20477;-65
2020/12/19 10:14:25;;;;;;;1.80;1.70;;;20.40;48.40;;;;;;5019239;28;20482;-67
2020/12/19 10:16:52;;;;;;;2.70;1.67;;;20.50;49.30;;;;;;5065822;28;20493;-67
2020/12/19 10:19:18;;;;;;;2.43;2.30;;;20.50;48.00;;;;;;5067426;28;20495;-67
2020/12/19 10:21:44;;;;;;;1.67;1.50;;;20.50;48.00;;;;;;5056693;28;20478;-67
2020/12/19 10:24:10;;;;;;;1.93;1.83;;;20.50;48.00;;;;;;5068541;28;20489;-67
2020/12/19 10:26:37;;;;;;;1.70;1.60;;;20.50;48.00;;;;;;5068017;28;20496;-68
2020/12/19 10:29:03;;;;;;;1.80;1.80;;;20.50;49.30;;;;;;5064425;28;20482;-66
2020/12/19 10:31:29;;;;;;;2.07;1.97;;;20.60;48.30;;;;;;5059787;28;20481;-66
2020/12/19 10:33:56;;;;;;;2.17;2.07;;;20.60;47.90;;;;;;5064831;28;20530;-68
2020/12/19 10:36:22;;;;;;;22.63;2.10;;;20.60;48.90;;;;;;5055917;28;20477;-70
2020/12/19 10:38:48;;;;;;;3.60;2.00;;;20.70;48.70;;;;;;5068895;28;21002;-67
2020/12/19 10:41:14;;;;;;;31.47;3.27;;;20.80;49.30;;;;;;5060435;28;20473;-67
2020/12/19 10:43:41;;;;;;;14.97;2.73;;;20.80;49.70;;;;;;5057212;28;20480;-67
2020/12/19 10:46:07;;;;;;;3.60;2.17;;;20.70;49.70;;;;;;5057514;28;20482;-67
2020/12/19 10:48:33;;;;;;;6.90;2.40;;;20.70;50.00;;;;;;5067778;28;21038;-67
2020/12/19 10:51:00;;;;;;;18.83;2.37;;;20.70;49.90;;;;;;5064895;28;20472;-67
2020/12/19 10:53:26;;;;;;;7.80;1.90;;;20.70;51.70;;;;;;5078418;28;20525;-67
2020/12/19 10:55:53;;;;;;;7.80;1.93;;;20.70;51.20;;;;;;5070089;28;20476;-67
2020/12/19 10:58:19;;;;;;;5.43;2.23;;;20.70;53.00;;;;;;5062875;28;20493;-66
2020/12/19 11:00:45;;;;;;;13.67;1.80;;;20.70;51.70;;;;;;5070937;28;20558;-67
2020/12/19 11:03:11;;;;;;;10.03;4.47;;;20.80;55.40;;;;;;5073849;27;20880;-67
2020/12/19 11:05:39;;;;;;;12.03;3.37;;;20.80;52.60;;;;;;5081470;28;20481;-67
2020/12/19 11:08:06;;;;;;;18.33;3.10;;;20.80;52.90;;;;;;5072234;28;20912;-74
2020/12/19 11:10:32;;;;;;;8.63;2.37;;;20.80;51.10;;;;;;5068015;28;20491;-66
2020/12/19 11:13:02;;;;;;;16.73;2.90;;;20.80;51.60;;;;;;5031539;28;20489;-66
2020/12/19 11:15:29;;;;;;;13.90;2.50;;;20.70;50.90;;;;;;5068861;27;20488;-66
2020/12/19 11:17:55;;;;;;;7.13;3.43;;;20.70;50.60;;;;;;5074431;27;20472;-64
2020/12/19 11:20:21;;;;;;;6.47;2.77;;;20.70;54.70;;;;;;5089779;27;20853;-66
2020/12/19 11:22:47;;;;;;;5.53;2.77;;;20.70;55.80;;;;;;5060101;28;20485;-66
2020/12/19 11:25:14;;;;;;;13.80;2.20;;;20.70;52.30;;;;;;5052778;28;20495;-66
2020/12/19 11:27:41;;;;;;;12.97;2.70;;;20.70;52.80;;;;;;5055062;28;20476;-67
2020/12/19 11:30:07;;;;;;;13.63;3.07;;;20.70;55.80;;;;;;5069910;28;20489;-67
2020/12/19 11:32:33;;;;;;;13.93;3.63;;;20.70;57.00;;;;;;5062404;28;20551;-67
2020/12/19 11:34:59;;;;;;;21.27;3.40;;;20.70;59.60;;;;;;5042039;28;20503;-67
2020/12/19 11:37:25;;;;;;;32.70;5.13;;;20.80;55.90;;;;;;5049051;28;20481;-67
2020/12/19 11:39:53;;;;;;;32.17;5.33;;;20.80;57.90;;;;;;5051557;28;20503;-68
2020/12/19 11:42:20;;;;;;;22.33;4.10;;;20.80;60.30;;;;;;4994291;28;20498;-67
2020/12/19 11:44:46;;;;;;;34.70;3.83;;;20.80;56.50;;;;;;5039584;28;20477;-68
2020/12/19 11:47:12;;;;;;;24.10;3.50;;;20.80;57.60;;;;;;5051914;28;20484;-67
2020/12/19 11:49:38;;;;;;;18.00;4.30;;;20.80;59.40;;;;;;5036757;28;20482;-68
2020/12/19 11:52:08;;;;;;;15.27;3.87;;;20.80;59.40;;;;;;5012988;28;20548;-67
2020/12/19 11:54:35;;;;;;;13.43;3.33;;;20.80;57.70;;;;;;5047845;28;20501;-67
2020/12/19 11:57:01;;;;;;;19.07;3.87;;;20.80;55.80;;;;;;5031655;28;20515;-67
2020/12/19 11:59:28;;;;;;;15.50;3.80;;;20.80;56.10;;;;;;5037060;28;20543;-67
2020/12/19 12:01:54;;;;;;;36.93;4.50;;;20.80;57.40;;;;;;5014846;28;20507;-68
2020/12/19 12:04:20;;;;;;;23.13;4.53;;;20.90;55.50;;;;;;5027131;28;20489;-67
2020/12/19 12:06:47;;;;;;;20.83;3.80;;;20.80;54.50;;;;;;5033850;28;20481;-68
2020/12/19 12:09:13;;;;;;;23.00;4.70;;;20.80;54.40;;;;;;5034670;28;20501;-67
2020/12/19 12:11:39;;;;;;;24.50;3.93;;;20.80;54.10;;;;;;5031904;28;20487;-68
2020/12/19 12:14:05;;;;;;;17.33;3.20;;;20.70;53.90;;;;;;5025152;28;20465;-68
2020/12/19 12:16:32;;;;;;;16.40;3.37;;;20.70;53.60;;;;;;5040678;28;20490;-68
2020/12/19 12:18:58;;;;;;;19.50;3.57;;;20.60;53.40;;;;;;5012501;28;21014;-68
2020/12/19 12:21:26;;;;;;;26.47;3.17;;;20.60;53.10;;;;;;5047670;28;20474;-68
2020/12/19 12:23:52;;;;;;;12.10;2.83;;;20.60;52.60;;;;;;5043997;28;20497;-68
2020/12/19 12:26:22;;;;;;;10.27;2.30;;;20.60;52.30;;;;;;5037290;28;20485;-68
2020/12/19 12:28:48;;;;;;;14.50;2.73;;;20.70;52.20;;;;;;5031248;28;20512;-69
2020/12/19 12:31:20;;;;;;;14.53;2.77;;;20.80;52.00;;;;;;5028810;28;20481;-67
2020/12/19 12:33:47;;;;;;;5.30;2.67;;;20.80;51.60;;;;;;5003967;28;20476;-68
2020/12/19 12:36:13;;;;;;;4.60;1.83;;;20.80;51.40;;;;;;5005101;28;21081;-68
2020/12/19 12:38:39;;;;;;;3.77;1.97;;;20.80;51.20;;;;;;5054320;28;20491;-69
2020/12/19 12:41:06;;;;;;;7.43;2.80;;;20.80;51.10;;;;;;5033989;28;20491;-67
2020/12/19 12:43:32;;;;;;;12.63;2.47;;;20.80;51.10;;;;;;5047303;28;22044;-68